Nrc Patriot II — WDA8587 — position and weather

sailwx.info

Track history (hours):
 
Tides and Currents Weather Stations Pressure Air Temp Water Temp Dewpoint Dewpoint Depression Visibility Wind Speed Wind Dir Waves Ship Positions

Nrc Patriot II

Owner: National Response Corporation, HOUSTON, TX. More information available from US FCC via Universal Licensing System and Coast Guard Vessel Documentation Center.

Last reported at 2015-May-27 17:29 UTC. Time now 2015-May-27 17:56 UTC.
Position N 33°44' W 118°16'.

Length 30 m; draft 3.5 m.

Type: Port tender. MMSI: 366855940.

Date/timePositionNaut miles runAvg speedWind from/ knotsBaromVisibWave heightAir tempDewpointWater temp
2015-May-27 17:29N 33°44' W 118°16'0 0.0
2015-May-27 16:32N 33°44' W 118°16'0 0.0
2015-May-27 15:28N 33°44' W 118°16'0 0.0
2015-May-27 14:30N 33°44' W 118°16'0 0.0
2015-May-27 02:33N 33°44' W 118°16'0 0.0
2015-May-26 23:27N 33°44' W 118°16'0 0.0
2015-May-26 22:32N 33°44' W 118°16'0 0.0
2015-May-26 21:33N 33°44' W 118°16'0 0.0
2015-May-26 20:33N 33°44' W 118°16'0 0.0
2015-May-26 19:13N 33°44' W 118°16'0 0.0
2015-May-26 18:07N 33°44' W 118°16'0 0.0
2015-May-26 17:33N 33°44' W 118°16'0 0.0
2015-May-26 16:33N 33°44' W 118°16'0 0.0
2015-May-26 15:33N 33°44' W 118°16'0 0.0
2015-May-26 14:33N 33°44' W 118°16'0 0.0
2015-May-26 13:33N 33°44' W 118°16'0 0.0
2015-May-26 12:33N 33°44' W 118°16'0 0.0
2015-May-26 11:33N 33°44' W 118°16'0 0.0
2015-May-26 10:22N 33°44' W 118°16'0 0.0
2015-May-26 04:26N 33°44' W 118°16'0 0.0
2015-May-26 03:24N 33°44' W 118°16'0 0.0
2015-May-26 00:19N 33°44' W 118°16'0 0.0
2015-May-25 23:29N 33°44' W 118°16'0 0.0
2015-May-25 22:33N 33°44' W 118°16'0 0.0
2015-May-25 21:33N 33°44' W 118°16'0 0.0
2015-May-25 20:33N 33°44' W 118°16'0 0.0
2015-May-25 19:33N 33°44' W 118°16'0 0.0
2015-May-25 18:28N 33°44' W 118°16'0 0.0
2015-May-25 17:32N 33°44' W 118°16'0 0.0
2015-May-25 16:34N 33°44' W 118°16'0 0.0
2015-May-25 09:33N 33°44' W 118°16'0 0.0
2015-May-25 08:25N 33°44' W 118°16'0 0.0
2015-May-25 07:33N 33°44' W 118°16'0 0.0
2015-May-25 05:30N 33°44' W 118°16'0 0.0
2015-May-25 00:22N 33°44' W 118°16'0 0.0
2015-May-24 22:28N 33°44' W 118°16'0 0.0
2015-May-24 20:06N 33°44' W 118°16'0 0.0
2015-May-24 17:15N 33°44' W 118°16'0 0.0
2015-May-24 05:25N 33°44' W 118°16'0 0.0
2015-May-24 03:31N 33°44' W 118°16'0 0.0
2015-May-23 20:09N 33°44' W 118°16'0 0.0
2015-May-23 19:33N 33°44' W 118°16'0 0.0
2015-May-23 18:15N 33°44' W 118°16'0 0.0
2015-May-23 17:31N 33°44' W 118°16'0 0.0
2015-May-23 16:09N 33°44' W 118°16'0 0.0
2015-May-23 15:34N 33°44' W 118°16'0 0.0
2015-May-23 14:31N 33°44' W 118°16'0 0.0
2015-May-23 07:28N 33°44' W 118°16'0 0.0
2015-May-22 16:27N 33°44' W 118°16'0 0.0
2015-May-21 21:14N 33°44' W 118°16'0 0.2
2015-May-21 20:22N 33°44' W 118°16'6 7.7
2015-May-21 19:33N 33°43' W 118°09'6 5.3
2015-May-21 18:24N 33°40' W 118°03'0 0.0
2015-May-21 17:33N 33°40' W 118°03'0 0.0
2015-May-21 16:21N 33°40' W 118°03'12 0.4
2015-May-20 06:13N 33°44' W 118°16'0 0.0
2015-May-20 03:30N 33°44' W 118°16'0 0.0
2015-May-20 02:33N 33°44' W 118°16'0 0.0
2015-May-20 01:32N 33°44' W 118°16'0 0.0
2015-May-20 00:33N 33°44' W 118°16'0 0.0
2015-May-19 23:33N 33°44' W 118°16'0 0.0
2015-May-19 22:31N 33°44' W 118°16'4 4.5
2015-May-19 21:33N 33°43' W 118°11'6 1.0
2015-May-19 16:04N 33°41' W 118°05'5 8.8
2015-May-19 15:33N 33°44' W 118°09'6 3.8
2015-May-19 14:04N 33°44' W 118°16'0 0.0
2015-May-17 21:20N 33°44' W 118°16'  
Track history (hours):
 
Tides and Currents Weather Stations Pressure Air Temp Water Temp Dewpoint Dewpoint Depression Visibility Wind Speed Wind Dir Waves Ship Positions

Nrc Patriot II

Owner: National Response Corporation, HOUSTON, TX. More information available from US FCC via Universal Licensing System and Coast Guard Vessel Documentation Center.

Last reported at 2015-May-27 17:29 UTC. Time now 2015-May-27 17:56 UTC.
Position N 33°44' W 118°16'.

Length 30 m; draft 3.5 m.

Type: Port tender. MMSI: 366855940.

Date/timePositionNaut miles runAvg speedWind from/ knotsBaromVisibWave heightAir tempDewpointWater temp
2015-May-27 17:29N 33°44' W 118°16'0 0.0
2015-May-27 16:32N 33°44' W 118°16'0 0.0
2015-May-27 15:28N 33°44' W 118°16'0 0.0
2015-May-27 14:30N 33°44' W 118°16'0 0.0
2015-May-27 02:33N 33°44' W 118°16'0 0.0
2015-May-26 23:27N 33°44' W 118°16'0 0.0
2015-May-26 22:32N 33°44' W 118°16'0 0.0
2015-May-26 21:33N 33°44' W 118°16'0 0.0
2015-May-26 20:33N 33°44' W 118°16'0 0.0
2015-May-26 19:13N 33°44' W 118°16'0 0.0
2015-May-26 18:07N 33°44' W 118°16'0 0.0
2015-May-26 17:33N 33°44' W 118°16'0 0.0
2015-May-26 16:33N 33°44' W 118°16'0 0.0
2015-May-26 15:33N 33°44' W 118°16'0 0.0
2015-May-26 14:33N 33°44' W 118°16'0 0.0
2015-May-26 13:33N 33°44' W 118°16'0 0.0
2015-May-26 12:33N 33°44' W 118°16'0 0.0
2015-May-26 11:33N 33°44' W 118°16'0 0.0
2015-May-26 10:22N 33°44' W 118°16'0 0.0
2015-May-26 04:26N 33°44' W 118°16'0 0.0
2015-May-26 03:24N 33°44' W 118°16'0 0.0
2015-May-26 00:19N 33°44' W 118°16'0 0.0
2015-May-25 23:29N 33°44' W 118°16'0 0.0
2015-May-25 22:33N 33°44' W 118°16'0 0.0
2015-May-25 21:33N 33°44' W 118°16'0 0.0
2015-May-25 20:33N 33°44' W 118°16'0 0.0
2015-May-25 19:33N 33°44' W 118°16'0 0.0
2015-May-25 18:28N 33°44' W 118°16'0 0.0
2015-May-25 17:32N 33°44' W 118°16'0 0.0
2015-May-25 16:34N 33°44' W 118°16'0 0.0
2015-May-25 09:33N 33°44' W 118°16'0 0.0
2015-May-25 08:25N 33°44' W 118°16'0 0.0
2015-May-25 07:33N 33°44' W 118°16'0 0.0
2015-May-25 05:30N 33°44' W 118°16'0 0.0
2015-May-25 00:22N 33°44' W 118°16'0 0.0
2015-May-24 22:28N 33°44' W 118°16'0 0.0
2015-May-24 20:06N 33°44' W 118°16'0 0.0
2015-May-24 17:15N 33°44' W 118°16'0 0.0
2015-May-24 05:25N 33°44' W 118°16'0 0.0
2015-May-24 03:31N 33°44' W 118°16'0 0.0
2015-May-23 20:09N 33°44' W 118°16'0 0.0
2015-May-23 19:33N 33°44' W 118°16'0 0.0
2015-May-23 18:15N 33°44' W 118°16'0 0.0
2015-May-23 17:31N 33°44' W 118°16'0 0.0
2015-May-23 16:09N 33°44' W 118°16'0 0.0
2015-May-23 15:34N 33°44' W 118°16'0 0.0
2015-May-23 14:31N 33°44' W 118°16'0 0.0
2015-May-23 07:28N 33°44' W 118°16'0 0.0
2015-May-22 16:27N 33°44' W 118°16'0 0.0
2015-May-21 21:14N 33°44' W 118°16'0 0.2
2015-May-21 20:22N 33°44' W 118°16'6 7.7
2015-May-21 19:33N 33°43' W 118°09'6 5.3
2015-May-21 18:24N 33°40' W 118°03'0 0.0
2015-May-21 17:33N 33°40' W 118°03'0 0.0
2015-May-21 16:21N 33°40' W 118°03'12 0.4
2015-May-20 06:13N 33°44' W 118°16'0 0.0
2015-May-20 03:30N 33°44' W 118°16'0 0.0
2015-May-20 02:33N 33°44' W 118°16'0 0.0
2015-May-20 01:32N 33°44' W 118°16'0 0.0
2015-May-20 00:33N 33°44' W 118°16'0 0.0
2015-May-19 23:33N 33°44' W 118°16'0 0.0
2015-May-19 22:31N 33°44' W 118°16'4 4.5
2015-May-19 21:33N 33°43' W 118°11'6 1.0
2015-May-19 16:04N 33°41' W 118°05'5 8.8
2015-May-19 15:33N 33°44' W 118°09'6 3.8
2015-May-19 14:04N 33°44' W 118°16'0 0.0
2015-May-17 21:20N 33°44' W 118°16'  

Dump ship's entire track history